Time;durP1;ratioP1;P1;durP2;ratioP2;P2;SDS_P1;SDS_P2;PMS_P1;PMS_P2;Temp;Humidity;BMP_temperature;BMP_pressure;BME280_temperature;BME280_humidity;BME280_pressure;Samples;Min_cycle;Max_cycle;Signal;HPM_P1;HPM_P2
2021/09/10 00:02:15;;;;;;;25.73;10.90;;;;;;;11.70;66.39;101038.69;126252;1099;104233;-81
2021/09/10 00:04:46;;;;;;;26.87;11.90;;;;;;;11.67;65.89;101026.34;126340;1099;104156;-80
2021/09/10 00:07:17;;;;;;;25.27;11.57;;;;;;;11.67;66.35;101035.94;126261;1099;104159;-80
2021/09/10 00:09:47;;;;;;;23.60;11.20;;;;;;;11.62;66.36;101041.02;126197;1098;104242;-80
2021/09/10 00:12:18;;;;;;;26.43;11.03;;;;;;;11.58;65.82;101036.49;126355;1099;104174;-80
2021/09/10 00:14:49;;;;;;;24.60;12.00;;;;;;;11.56;66.04;101032.00;126262;1099;104191;-80
2021/09/10 00:17:19;;;;;;;25.97;10.53;;;;;;;11.55;66.55;101028.48;126280;1099;105498;-80
2021/09/10 00:19:50;;;;;;;25.97;11.23;;;;;;;11.55;66.54;101024.97;126353;1099;104258;-81
2021/09/10 00:22:21;;;;;;;26.23;10.77;;;;;;;11.54;66.42;101018.80;126260;1099;104165;-80
2021/09/10 00:24:51;;;;;;;22.77;11.17;;;;;;;11.53;66.40;101022.28;126300;1099;104238;-81
2021/09/10 00:27:22;;;;;;;25.63;11.07;;;;;;;11.49;66.29;101029.13;126298;1099;104599;-80
2021/09/10 00:29:54;;;;;;;26.40;10.83;;;;;;;11.45;66.53;101032.48;126223;1099;104179;-79
2021/09/10 00:32:25;;;;;;;27.40;11.33;;;;;;;11.41;66.72;101030.55;126275;1099;104342;-79
2021/09/10 00:34:56;;;;;;;23.40;11.20;;;;;;;11.39;66.59;101028.69;126270;1098;104367;-79
2021/09/10 00:37:27;;;;;;;25.13;11.40;;;;;;;11.39;67.22;101026.05;126274;1098;104152;-80
2021/09/10 00:39:58;;;;;;;26.00;11.47;;;;;;;11.36;67.18;101018.97;126325;1099;104127;-81
2021/09/10 00:42:28;;;;;;;27.87;12.83;;;;;;;11.32;66.79;101022.29;126312;1099;104271;-81
2021/09/10 00:44:59;;;;;;;26.87;11.00;;;;;;;11.30;67.08;101016.09;126324;1099;104245;-80
2021/09/10 00:47:30;;;;;;;24.03;10.93;;;;;;;11.29;67.56;101016.91;126294;1099;104159;-80
2021/09/10 00:50:00;;;;;;;22.00;10.50;;;;;;;11.27;67.63;101018.59;126343;1099;104168;-80
2021/09/10 00:52:31;;;;;;;27.20;11.07;;;;;;;11.27;67.62;101013.33;126315;1099;104153;-81
2021/09/10 00:55:02;;;;;;;23.17;10.47;;;;;;;11.27;67.36;101018.59;126337;1099;104165;-81
2021/09/10 00:57:33;;;;;;;26.63;10.80;;;;;;;11.25;67.22;101012.35;126261;1099;104234;-81
2021/09/10 01:00:05;;;;;;;24.33;10.80;;;;;;;11.24;67.26;101007.95;126284;1099;104326;-80
2021/09/10 01:02:35;;;;;;;26.47;11.40;;;;;;;11.22;67.56;101014.85;126353;1099;104203;-80
2021/09/10 01:05:07;;;;;;;25.47;10.77;;;;;;;11.18;67.92;101002.45;126342;1099;104178;-79
2021/09/10 01:07:38;;;;;;;23.77;10.27;;;;;;;11.18;67.33;101012.95;126317;1099;104169;-80
2021/09/10 01:10:10;;;;;;;23.10;9.63;;;;;;;11.16;67.73;101015.52;126326;1097;104262;-80
2021/09/10 01:12:42;;;;;;;24.23;10.13;;;;;;;11.17;67.91;101011.15;126317;1099;104217;-81
2021/09/10 01:15:13;;;;;;;22.77;10.17;;;;;;;11.15;67.36;101014.59;126302;1099;104165;-78
2021/09/10 01:17:44;;;;;;;25.10;11.25;;;;;;;11.13;67.80;101015.39;126308;1099;104168;-79
2021/09/10 01:20:15;;;;;;;24.90;11.00;;;;;;;11.11;67.45;101012.70;126289;1099;104201;-80
2021/09/10 01:22:46;;;;;;;26.23;11.30;;;;;;;11.06;68.14;101018.58;126304;1099;104171;-79
2021/09/10 01:25:18;;;;;;;23.87;10.63;;;;;;;10.99;67.60;101016.55;126266;1099;104245;-79
2021/09/10 01:27:53;;;;;;;23.83;10.20;;;;;;;10.92;68.07;101013.66;126276;1099;104149;-81
2021/09/10 01:30:27;;;;;;;21.80;10.23;;;;;;;10.90;68.01;101011.79;126331;1099;104255;-81
2021/09/10 01:32:59;;;;;;;23.07;10.90;;;;;;;10.86;68.02;101016.02;126370;1099;104137;-81
2021/09/10 01:35:30;;;;;;;25.97;11.17;;;;;;;10.82;67.97;101016.71;126321;1099;104303;-81
2021/09/10 01:38:00;;;;;;;26.23;10.67;;;;;;;10.81;68.61;101016.65;126164;1099;104147;-81
2021/09/10 01:40:31;;;;;;;25.57;11.73;;;;;;;10.77;68.60;101015.63;126322;1099;103963;-80
2021/09/10 01:43:02;;;;;;;25.07;10.90;;;;;;;10.74;68.28;101012.87;126319;1099;104177;-79
2021/09/10 01:45:33;;;;;;;22.20;9.77;;;;;;;10.72;69.05;101002.30;126272;1099;104137;-80
2021/09/10 01:48:05;;;;;;;25.90;10.23;;;;;;;10.70;68.29;100996.07;126274;1099;104224;-80
2021/09/10 01:50:36;;;;;;;25.13;9.73;;;;;;;10.70;68.96;101001.32;126290;1099;104239;-80
2021/09/10 01:53:07;;;;;;;22.03;9.43;;;;;;;10.70;69.23;100997.81;126324;1099;104182;-80
2021/09/10 01:55:38;;;;;;;25.43;10.47;;;;;;;10.69;68.90;101001.25;126320;1099;104169;-80
2021/09/10 01:58:08;;;;;;;23.93;10.33;;;;;;;10.65;69.37;101000.23;126327;1099;104174;-80
2021/09/10 02:00:39;;;;;;;25.53;11.00;;;;;;;10.64;68.91;101002.80;126276;1099;117861;-80
2021/09/10 02:03:11;;;;;;;24.53;9.80;;;;;;;10.60;69.55;101002.66;126276;1099;104350;-80
2021/09/10 02:05:42;;;;;;;23.53;9.90;;;;;;;10.57;69.19;100994.66;126326;1099;104242;-80
2021/09/10 02:08:12;;;;;;;20.17;9.27;;;;;;;10.56;68.99;100998.09;126246;1099;105691;-80
2021/09/10 02:10:43;;;;;;;29.37;10.33;;;;;;;10.57;68.95;101004.27;126296;1099;104261;-80
2021/09/10 02:13:16;;;;;;;23.47;9.93;;;;;;;10.58;69.25;100993.83;126354;1099;104243;-80
2021/09/10 02:15:46;;;;;;;23.00;9.23;;;;;;;10.57;69.57;100992.03;126313;1098;101658;-80
2021/09/10 02:18:17;;;;;;;25.10;10.63;;;;;;;10.56;69.25;100997.20;126332;1099;104143;-81
2021/09/10 02:20:48;;;;;;;21.77;9.40;;;;;;;10.55;69.14;101000.66;126272;1099;105463;-81
2021/09/10 02:23:18;;;;;;;23.40;9.77;;;;;;;10.56;69.25;100994.58;126367;1099;104194;-81
2021/09/10 02:25:49;;;;;;;21.90;9.50;;;;;;;10.56;69.04;100992.84;126343;1099;104251;-80
2021/09/10 02:28:20;;;;;;;22.23;9.37;;;;;;;10.57;69.91;100991.14;126329;1099;104395;-81
2021/09/10 02:30:52;;;;;;;24.87;9.30;;;;;;;10.57;69.39;100991.14;126240;1099;104144;-81
2021/09/10 02:33:23;;;;;;;23.10;9.83;;;;;;;10.56;70.48;100989.34;126320;1098;104261;-80
2021/09/10 02:35:53;;;;;;;24.07;9.90;;;;;;;10.51;69.51;100996.13;126389;1099;104149;-80
2021/09/10 02:38:25;;;;;;;24.67;10.43;;;;;;;10.49;69.70;100995.17;126261;1099;104278;-80
2021/09/10 02:40:56;;;;;;;23.43;10.00;;;;;;;10.44;70.07;100987.09;126284;1099;104140;-80
2021/09/10 02:43:26;;;;;;;23.30;9.43;;;;;;;10.38;70.14;101007.81;126319;1099;104162;-80
2021/09/10 02:45:57;;;;;;;24.33;9.97;;;;;;;10.35;70.31;101005.05;126310;1099;104251;-80
2021/09/10 02:48:28;;;;;;;20.80;9.00;;;;;;;10.31;70.42;101006.58;126334;1097;104634;-80
2021/09/10 02:50:58;;;;;;;22.87;8.47;;;;;;;10.29;70.76;101010.88;126210;1099;104249;-80
2021/09/10 02:53:29;;;;;;;23.10;9.40;;;;;;;10.28;70.56;101006.44;126286;1099;104139;-80
2021/09/10 02:56:00;;;;;;;21.97;9.60;;;;;;;10.26;70.63;101011.62;126268;1099;104206;-80
2021/09/10 02:58:32;;;;;;;25.37;9.97;;;;;;;10.24;70.07;101007.16;126359;1099;104136;-80
2021/09/10 03:01:04;;;;;;;21.07;8.90;;;;;;;10.23;70.45;101002.72;126209;1099;104187;-80
2021/09/10 03:03:36;;;;;;;18.67;8.80;;;;;;;10.23;70.28;101005.34;126323;1099;104301;-80
2021/09/10 03:06:07;;;;;;;22.13;9.07;;;;;;;10.23;70.33;101003.61;126211;1099;104206;-79
2021/09/10 03:08:38;;;;;;;19.53;8.73;;;;;;;10.26;70.47;101005.48;126333;1099;104149;-81
2021/09/10 03:11:10;;;;;;;22.43;9.20;;;;;;;10.26;70.47;101009.00;126256;1099;104156;-80
2021/09/10 03:13:40;;;;;;;22.97;9.80;;;;;;;10.23;70.85;101007.97;126355;1099;104140;-80
2021/09/10 03:16:11;;;;;;;24.93;9.90;;;;;;;10.19;71.33;101000.78;126285;1099;104252;-79
2021/09/10 03:18:41;;;;;;;23.00;9.23;;;;;;;10.15;70.94;101009.36;126285;1099;104285;-81
2021/09/10 03:21:12;;;;;;;19.63;8.63;;;;;;;10.13;70.79;101010.98;126214;1099;104201;-80
2021/09/10 03:23:43;;;;;;;25.10;9.47;;;;;;;10.11;71.27;101010.92;126324;1099;104168;-79
2021/09/10 03:26:13;;;;;;;22.47;9.77;;;;;;;10.11;70.95;101007.41;126322;1099;104171;-81
2021/09/10 03:28:45;;;;;;;22.23;8.63;;;;;;;10.10;71.32;101009.14;126305;1099;104248;-80
2021/09/10 03:31:15;;;;;;;21.17;8.80;;;;;;;10.10;71.50;101010.84;126261;1099;104137;-79
2021/09/10 03:33:46;;;;;;;23.77;9.40;;;;;;;10.07;71.50;101006.38;126287;1099;104155;-81
2021/09/10 03:36:18;;;;;;;19.83;9.27;;;;;;;10.05;71.16;101008.94;126309;1099;104262;-79
2021/09/10 03:38:49;;;;;;;24.10;8.87;;;;;;;10.03;71.52;101007.95;126312;1099;104281;-81
2021/09/10 03:41:20;;;;;;;19.50;8.93;;;;;;;10.03;71.57;101010.56;126211;1098;104329;-81
2021/09/10 03:43:52;;;;;;;24.50;8.85;;;;;;;10.02;71.67;101013.12;126245;1099;104317;-79
2021/09/10 03:46:24;;;;;;;20.60;8.73;;;;;;;10.04;71.82;101012.38;126348;1099;104278;-79
2021/09/10 03:48:54;;;;;;;25.63;9.77;;;;;;;10.04;71.90;101014.11;126326;1099;104603;-80
2021/09/10 03:51:25;;;;;;;19.97;8.50;;;;;;;10.04;71.70;101019.35;126264;1099;104162;-80
2021/09/10 03:53:56;;;;;;;20.75;9.00;;;;;;;10.05;71.55;101022.05;126364;1099;104149;-80
2021/09/10 03:56:26;;;;;;;23.67;9.37;;;;;;;10.05;71.79;101027.29;126312;1098;104265;-79
2021/09/10 03:58:57;;;;;;;24.93;9.83;;;;;;;10.02;71.16;101026.23;126284;1099;104144;-79
2021/09/10 04:01:29;;;;;;;21.50;9.00;;;;;;;10.00;72.15;101022.65;126222;1099;104143;-79
2021/09/10 04:04:00;;;;;;;20.07;8.87;;;;;;;10.00;72.28;101026.19;126175;1099;104194;-79
2021/09/10 04:06:31;;;;;;;20.47;8.57;;;;;;;10.02;72.17;101027.14;126178;1099;102828;-78
2021/09/10 04:09:02;;;;;;;21.10;8.33;;;;;;;10.06;72.24;101029.06;126164;1099;104208;-79
2021/09/10 04:11:32;;;;;;;23.73;8.87;;;;;;;10.08;72.35;101032.67;125971;1099;104309;-79
2021/09/10 04:14:03;;;;;;;25.53;9.47;;;;;;;10.10;72.03;101037.07;126163;1099;104326;-78
2021/09/10 04:17:01;;;;;;;23.47;9.70;;;;;;;10.14;71.78;101036.40;126196;1099;104175;-78
2021/09/10 04:19:50;;;;;;;24.77;10.23;;;;;;;10.16;71.81;101030.41;126177;1099;104162;-79
2021/09/10 04:22:21;;;;;;;24.10;9.73;;;;;;;10.17;72.10;101034.80;126065;1099;104150;-79
2021/09/10 04:24:52;;;;;;;24.27;10.03;;;;;;;10.18;71.53;101033.10;126195;1099;104398;-79
2021/09/10 04:27:23;;;;;;;22.27;8.43;;;;;;;10.20;71.43;101031.44;126199;1098;104233;-80
2021/09/10 04:29:53;;;;;;;23.50;8.83;;;;;;;10.22;71.68;101029.77;126182;1099;104403;-79
2021/09/10 04:32:24;;;;;;;19.37;7.93;;;;;;;10.23;72.41;101031.58;126117;1099;104352;-80
2021/09/10 04:34:55;;;;;;;23.70;9.73;;;;;;;10.25;71.78;101022.04;125427;1099;104306;-79
2021/09/10 04:37:26;;;;;;;22.33;9.00;;;;;;;10.29;71.51;101023.98;126275;1099;104226;-80
2021/09/10 04:40:00;;;;;;;19.57;8.50;;;;;;;10.35;71.37;101034.79;126314;1099;104188;-78
2021/09/10 04:42:31;;;;;;;19.90;8.67;;;;;;;10.41;72.13;101032.44;126256;1099;104242;-81
2021/09/10 04:45:04;;;;;;;21.37;8.63;;;;;;;10.46;72.46;101031.77;126280;1099;104223;-79
2021/09/10 04:47:37;;;;;;;23.40;9.17;;;;;;;10.50;71.59;101031.05;126238;1099;104242;-79
2021/09/10 04:50:08;;;;;;;;;;;;;;;10.56;71.94;101020.83;126332;1098;104204;-80
2021/09/10 04:52:40;;;;;;;20.23;9.07;;;;;;;10.62;72.02;101018.47;126172;1099;104255;-80
2021/09/10 04:55:17;;;;;;;19.80;8.77;;;;;;;10.68;71.83;101016.12;126290;1099;104217;-77
2021/09/10 04:57:50;;;;;;;21.40;8.30;;;;;;;10.74;71.82;101019.01;126238;1098;104220;-79
2021/09/10 05:00:29;;;;;;;22.07;9.20;;;;;;;10.76;71.78;101011.20;126177;1099;104191;-80
2021/09/10 05:03:03;;;;;;;22.70;9.10;;;;;;;10.79;72.23;101013.95;126245;1099;104192;-80
2021/09/10 05:05:36;;;;;;;30.82;10.58;;;;;;;10.82;71.75;101011.47;126288;1099;104241;-80
2021/09/10 05:08:07;;;;;;;20.93;8.47;;;;;;;10.85;71.93;101011.59;126281;1098;104169;-81
2021/09/10 05:10:37;;;;;;;23.37;8.97;;;;;;;10.88;72.49;101011.73;126293;1099;104150;-79
2021/09/10 05:13:08;;;;;;;32.73;9.07;;;;;;;10.94;72.10;101013.73;126201;1099;104137;-82
2021/09/10 05:15:39;;;;;;;28.77;8.80;;;;;;;10.98;72.26;101013.00;126330;1099;104169;-81
2021/09/10 05:18:10;;;;;;;26.33;8.53;;;;;;;11.04;71.97;101005.38;126267;1099;104185;-83
2021/09/10 05:20:41;;;;;;;25.53;8.83;;;;;;;11.10;71.95;101007.38;126256;1099;104162;-82
2021/09/10 05:23:12;;;;;;;26.10;9.57;;;;;;;11.13;72.10;101007.51;126088;1099;104198;-81
2021/09/10 05:25:42;;;;;;;26.47;9.00;;;;;;;11.15;72.07;101009.34;125988;1099;104264;-81
2021/09/10 05:28:13;;;;;;;20.10;8.43;;;;;;;11.22;71.86;101017.48;126130;1099;104217;-78
2021/09/10 05:30:44;;;;;;;22.20;7.83;;;;;;;11.29;71.80;101011.66;126084;1099;104245;-77
2021/09/10 05:33:17;;;;;;;24.47;7.90;;;;;;;11.39;71.87;101012.92;125958;1099;104352;-79
2021/09/10 05:35:48;;;;;;;21.13;8.37;;;;;;;11.49;72.14;101010.72;125945;1099;104261;-78
2021/09/10 05:38:19;;;;;;;16.97;7.37;;;;;;;11.60;71.83;101008.52;125998;1098;104153;-79
2021/09/10 05:40:53;;;;;;;19.47;8.50;;;;;;;11.68;71.54;101014.09;125876;1099;104300;-78
2021/09/10 05:43:24;;;;;;;23.23;8.47;;;;;;;11.77;71.84;101005.67;126007;1099;104175;-79
2021/09/10 05:45:56;;;;;;;22.60;8.37;;;;;;;11.83;71.67;101006.80;126104;1098;104223;-79
2021/09/10 05:48:27;;;;;;;25.47;8.43;;;;;;;11.93;71.76;101004.56;125982;1099;104573;-77
2021/09/10 05:50:59;;;;;;;23.47;8.17;;;;;;;12.03;71.74;101004.08;125989;1099;104252;-77
2021/09/10 05:53:32;;;;;;;22.87;8.07;;;;;;;12.13;71.62;101000.94;125954;1099;104315;-77
2021/09/10 05:56:02;;;;;;;21.87;8.10;;;;;;;12.22;71.56;101006.55;126069;1099;104178;-78
2021/09/10 05:58:37;;;;;;;23.33;8.37;;;;;;;12.26;71.26;101007.55;126173;1099;104203;-76
2021/09/10 06:01:08;;;;;;;20.62;8.25;;;;;;;12.30;71.25;101008.58;125977;1099;105156;-76
2021/09/10 06:03:40;;;;;;;16.40;7.30;;;;;;;12.36;70.94;101011.43;126048;1099;104172;-78
2021/09/10 06:06:11;;;;;;;18.67;7.07;;;;;;;12.42;71.04;101014.29;126177;1099;104140;-77
2021/09/10 06:08:44;;;;;;;27.00;7.93;;;;;;;12.53;71.07;101012.93;125970;1099;104165;-78
2021/09/10 06:11:15;;;;;;;25.13;8.00;;;;;;;12.63;71.18;101015.89;126127;1099;104216;-77
2021/09/10 06:13:48;;;;;;;22.43;8.57;;;;;;;12.71;71.08;101009.16;126225;1099;104364;-76
2021/09/10 06:16:19;;;;;;;25.03;8.30;;;;;;;12.78;70.81;101008.53;126099;1099;104172;-76
2021/09/10 06:18:50;;;;;;;22.03;8.47;;;;;;;12.88;70.63;101013.26;126001;1099;104191;-77
2021/09/10 06:21:20;;;;;;;20.87;7.93;;;;;;;13.00;70.20;101017.18;126076;1099;104201;-78
2021/09/10 06:23:55;;;;;;;20.57;8.60;;;;;;;13.09;70.47;101006.95;125193;1099;104344;-77
2021/09/10 06:26:27;;;;;;;25.40;8.40;;;;;;;13.17;70.56;101013.37;126014;1099;104497;-77
2021/09/10 06:29:00;;;;;;;23.90;8.80;;;;;;;13.27;69.98;101009.28;125946;1099;104919;-78
2021/09/10 06:31:33;;;;;;;23.30;8.77;;;;;;;13.38;69.97;101021.09;126086;1099;104288;-77
2021/09/10 06:34:05;;;;;;;29.05;8.60;;;;;;;13.47;70.34;101015.24;125891;1099;104402;-78
2021/09/10 06:36:36;;;;;;;22.73;8.47;;;;;;;13.56;69.91;101017.29;126040;1099;104223;-77
2021/09/10 06:39:09;;;;;;;23.23;8.80;;;;;;;13.68;70.00;101016.77;125759;1099;105070;-77
2021/09/10 06:41:42;;;;;;;24.30;8.77;;;;;;;13.81;70.04;101024.22;125774;1099;104332;-77
2021/09/10 06:44:15;;;;;;;25.83;9.17;;;;;;;13.93;69.91;101024.59;125181;1099;104176;-78
2021/09/10 06:46:47;;;;;;;29.67;9.87;;;;;;;14.08;69.99;101025.90;125185;1099;104287;-77
2021/09/10 06:49:18;;;;;;;25.67;9.47;;;;;;;14.20;69.96;101020.98;125133;1102;104252;-77
2021/09/10 06:51:49;;;;;;;22.67;8.27;;;;;;;14.34;69.61;101026.67;125018;1102;104178;-78
2021/09/10 06:54:20;;;;;;;27.93;8.57;;;;;;;14.48;69.55;101027.06;124962;1099;104505;-78
2021/09/10 06:56:53;;;;;;;24.60;8.17;;;;;;;14.62;68.77;101019.56;125148;1099;104165;-77
2021/09/10 06:59:24;;;;;;;22.73;8.40;;;;;;;14.78;69.10;101028.78;125108;1099;104341;-78
2021/09/10 07:01:55;;;;;;;25.03;8.93;;;;;;;14.90;68.46;101021.19;125092;1100;104284;-77
2021/09/10 07:04:27;;;;;;;24.93;8.50;;;;;;;15.07;68.96;101017.23;125051;1099;104207;-76
2021/09/10 07:06:59;;;;;;;22.17;7.93;;;;;;;15.21;68.42;101019.34;125179;1099;104561;-76
2021/09/10 07:09:31;;;;;;;24.50;8.43;;;;;;;15.33;68.38;101019.61;125097;1102;104772;-75
2021/09/10 07:12:08;;;;;;;23.20;7.67;;;;;;;15.52;68.43;101020.06;125110;1102;104179;-76
2021/09/10 07:14:41;;;;;;;18.60;7.70;;;;;;;15.72;68.10;101016.16;125091;1099;101950;-76
2021/09/10 07:17:12;;;;;;;22.00;7.47;;;;;;;15.93;67.12;101020.17;125595;1099;104195;-76
2021/09/10 07:19:44;;;;;;;24.87;7.87;;;;;;;16.12;66.76;101018.80;125530;1098;104313;-77
2021/09/10 07:22:16;;;;;;;20.20;8.37;;;;;;;16.27;67.06;101016.48;125679;1099;104925;-77
2021/09/10 07:24:47;;;;;;;22.27;7.73;;;;;;;16.49;66.66;101016.92;125550;1099;104186;-78
2021/09/10 07:27:19;;;;;;;18.23;7.70;;;;;;;16.67;65.72;101025.22;125605;1098;104380;-76
2021/09/10 07:29:50;;;;;;;24.17;8.83;;;;;;;16.91;66.05;101008.02;125179;1099;104273;-78
2021/09/10 07:32:21;;;;;;;23.20;8.40;;;;;;;17.05;65.52;101008.27;125563;1099;104176;-78
2021/09/10 07:34:52;;;;;;;22.27;8.90;;;;;;;17.16;65.22;101009.33;125229;1099;104316;-77
2021/09/10 07:37:27;;;;;;;28.70;9.50;;;;;;;17.25;64.98;101016.56;125798;1099;110815;-75
2021/09/10 07:39:58;;;;;;;26.03;8.80;;;;;;;17.38;64.99;101012.34;126080;1099;104290;-75
2021/09/10 07:42:32;;;;;;;25.80;8.90;;;;;;;17.49;64.71;101013.39;125906;1097;104172;-76
2021/09/10 07:45:03;;;;;;;29.87;9.57;;;;;;;17.64;64.33;101017.14;126050;1099;104246;-76
2021/09/10 07:47:35;;;;;;;23.70;8.45;;;;;;;17.78;63.80;101005.86;126135;1099;104143;-77
2021/09/10 07:50:07;;;;;;;21.30;8.60;;;;;;;17.95;63.51;101006.13;126059;1099;104168;-77
2021/09/10 07:52:44;;;;;;;26.77;8.57;;;;;;;18.10;63.07;101010.73;125934;1099;104245;-75
2021/09/10 07:55:15;;;;;;;23.00;7.70;;;;;;;18.31;62.71;101001.28;126185;1099;104156;-76
2021/09/10 07:57:46;;;;;;;21.73;7.87;;;;;;;18.49;62.53;101006.77;126166;1099;104626;-78
2021/09/10 08:00:33;;;;;;;26.83;8.17;;;;;;;18.69;62.24;100999.02;126135;1099;104632;-78
2021/09/10 08:03:12;;;;;;;24.37;8.27;;;;;;;18.88;62.00;101001.90;126122;1099;104182;-78
2021/09/10 08:05:43;;;;;;;25.27;8.87;;;;;;;19.09;61.45;101003.88;125162;1099;104172;-77
2021/09/10 08:08:14;;;;;;;26.07;8.53;;;;;;;19.32;61.27;101000.50;125688;1099;104188;-77
2021/09/10 08:10:46;;;;;;;24.87;8.60;;;;;;;19.47;60.90;100992.63;125612;1099;104296;-78
2021/09/10 08:13:20;;;;;;;26.20;9.13;;;;;;;19.57;60.67;100990.91;125267;1099;104236;-77
2021/09/10 08:15:54;;;;;;;26.10;8.73;;;;;;;19.70;60.77;100992.78;125238;1099;104347;-77
2021/09/10 08:18:41;;;;;;;20.73;8.13;;;;;;;19.87;59.39;100984.92;125288;1102;104312;-77
2021/09/10 08:21:12;;;;;;;27.87;7.80;;;;;;;20.02;58.73;100981.42;126030;1099;105087;-77
2021/09/10 08:23:45;;;;;;;21.67;7.90;;;;;;;20.20;57.85;100982.41;125869;1099;104201;-76
2021/09/10 08:26:20;;;;;;;20.97;7.63;;;;;;;20.31;58.24;100977.13;125184;1099;104788;-76
2021/09/10 08:28:55;;;;;;;21.10;8.07;;;;;;;20.42;57.07;100981.58;125732;1099;104229;-77
2021/09/10 08:31:25;;;;;;;;;;;;;;;20.54;55.39;100967.41;125768;1099;104235;-77
2021/09/10 08:33:57;;;;;;;20.83;8.00;;;;;;;20.68;57.21;100967.47;125325;1099;104271;-76
2021/09/10 08:36:28;;;;;;;24.20;7.80;;;;;;;20.76;56.12;100967.48;125271;1099;104306;-78
2021/09/10 08:39:00;;;;;;;18.93;7.10;;;;;;;20.82;56.60;100965.70;126177;1099;104357;-79
2021/09/10 08:41:35;;;;;;;25.37;7.57;;;;;;;20.87;56.10;100962.16;125563;1099;104220;-77
2021/09/10 08:44:14;;;;;;;19.70;7.43;;;;;;;20.95;56.20;100963.04;125807;1099;104251;-77
2021/09/10 08:46:45;;;;;;;20.67;6.83;;;;;;;20.99;55.35;100965.71;125820;1099;104332;-77
2021/09/10 08:49:19;;;;;;;20.33;7.23;;;;;;;21.05;54.92;100951.50;125948;1099;104370;-78
2021/09/10 08:51:49;;;;;;;;;;;;;;;21.19;54.39;100946.12;125339;1099;104686;-77
2021/09/10 08:54:24;;;;;;;19.03;7.20;;;;;;;21.33;54.78;100943.44;126011;1099;104322;-76
2021/09/10 08:56:55;;;;;;;25.30;8.07;;;;;;;21.42;54.57;100948.76;125893;1099;104249;-77
2021/09/10 08:59:29;;;;;;;23.33;7.67;;;;;;;21.51;54.25;100943.44;125973;1099;104264;-77
2021/09/10 09:02:04;;;;;;;26.07;7.33;;;;;;;21.60;53.78;100941.63;125345;1100;104147;-76
2021/09/10 09:04:37;;;;;;;21.87;7.73;;;;;;;21.67;54.05;100938.94;126004;1099;104222;-76
2021/09/10 09:07:10;;;;;;;22.73;8.78;;;;;;;21.75;53.58;100932.69;126143;1099;104159;-75
2021/09/10 09:09:57;;;;;;;20.00;6.83;;;;;;;21.85;53.26;100927.31;125751;1099;104309;-78
2021/09/10 09:12:40;;;;;;;19.80;7.37;;;;;;;21.97;52.33;100925.47;125676;1099;104137;-77
2021/09/10 09:15:24;;;;;;;19.33;7.10;;;;;;;22.05;52.64;100918.33;125361;1099;104389;-77
2021/09/10 09:18:07;;;;;;;21.37;7.27;;;;;;;22.08;51.58;100919.20;126024;1099;104171;-77
2021/09/10 09:20:52;;;;;;;15.67;6.50;;;;;;;22.14;51.57;100922.72;126007;1099;104194;-79
2021/09/10 09:23:42;;;;;;;21.37;7.07;;;;;;;22.21;51.61;100925.35;126064;1099;104287;-78
2021/09/10 09:26:30;;;;;;;22.83;7.80;;;;;;;22.31;50.68;100912.84;126119;1099;104388;-79
2021/09/10 09:29:17;;;;;;;16.10;6.00;;;;;;;22.41;50.13;100921.72;125843;1099;104172;-79
2021/09/10 09:32:04;;;;;;;21.27;7.37;;;;;;;22.54;50.20;100910.02;126017;1099;104297;-78
2021/09/10 09:34:52;;;;;;;19.87;6.80;;;;;;;22.65;50.54;100915.30;126036;1099;104216;-77
2021/09/10 09:37:38;;;;;;;20.03;6.90;;;;;;;22.71;50.11;100914.38;126030;1099;104181;-77
2021/09/10 09:40:17;;;;;;;19.30;6.87;;;;;;;22.76;49.64;100916.09;126195;1099;104172;-77
2021/09/10 09:42:57;;;;;;;14.13;6.30;;;;;;;22.80;48.51;100914.30;126000;1099;104142;-78
2021/09/10 09:45:39;;;;;;;16.50;6.47;;;;;;;22.92;48.90;100913.29;126184;1099;104137;-76
2021/09/10 09:48:30;;;;;;;16.53;6.40;;;;;;;23.00;48.07;100913.22;125998;1097;105560;-78
2021/09/10 09:51:04;;;;;;;19.20;6.10;;;;;;;23.06;47.73;100918.52;126224;1099;104142;-78
2021/09/10 09:53:38;;;;;;;18.23;6.00;;;;;;;23.10;47.83;100913.16;126243;1099;104155;-79
2021/09/10 09:56:13;;;;;;;14.37;5.80;;;;;;;23.14;47.16;100914.04;126243;1099;104357;-78
2021/09/10 09:58:44;;;;;;;;;;;;;;;23.14;43.54;100914.04;126229;1099;104137;-77
2021/09/10 10:01:20;;;;;;;17.20;5.37;;;;;;;23.22;45.03;100908.58;126232;1097;104223;-79
2021/09/10 10:03:56;;;;;;;13.20;5.43;;;;;;;23.24;44.87;100904.99;126200;1099;104268;-79
2021/09/10 10:06:33;;;;;;;18.40;6.20;;;;;;;23.29;43.59;100908.50;125940;1099;104194;-77
2021/09/10 10:09:08;;;;;;;19.57;6.60;;;;;;;23.30;43.58;100896.90;126009;1099;104149;-78
2021/09/10 10:11:44;;;;;;;18.27;6.40;;;;;;;23.37;43.71;100895.03;125955;1098;104201;-77
2021/09/10 10:14:29;;;;;;;17.00;6.33;;;;;;;23.46;44.11;100891.37;125940;1099;104187;-76
2021/09/10 10:17:02;;;;;;;16.37;6.10;;;;;;;23.53;43.17;100889.50;126208;1099;104299;-76
2021/09/10 10:19:45;;;;;;;12.47;5.67;;;;;;;23.62;41.99;100874.23;126159;1099;104573;-77
2021/09/10 10:22:33;;;;;;;13.40;5.80;;;;;;;23.69;41.01;100873.23;125903;1099;104595;-76
2021/09/10 10:25:07;;;;;;;14.97;5.47;;;;;;;23.78;42.17;100872.23;126126;1099;104143;-76
2021/09/10 10:27:46;;;;;;;11.20;5.50;;;;;;;23.83;40.74;100872.19;125977;1098;104172;-77
2021/09/10 10:30:45;;;;;;;11.57;4.93;;;;;;;23.92;41.97;100865.83;125955;1099;104160;-78
2021/09/10 10:33:29;;;;;;;13.70;5.27;;;;;;;24.00;41.76;100862.14;126264;1099;104172;-77
2021/09/10 10:36:28;;;;;;;13.73;5.27;;;;;;;24.03;40.96;100870.14;126123;1099;104268;-77
2021/09/10 10:39:27;;;;;;;12.83;5.27;;;;;;;24.10;40.62;100859.33;126103;1099;104226;-78
2021/09/10 10:42:00;;;;;;;11.63;4.97;;;;;;;24.14;39.17;100859.27;126007;1099;104669;-76
2021/09/10 10:44:55;;;;;;;15.60;5.60;;;;;;;24.17;40.45;100861.91;126145;1099;104184;-77
2021/09/10 10:47:48;;;;;;;9.90;5.10;;;;;;;24.21;39.65;100852.01;126243;1099;104174;-78
2021/09/10 10:50:35;;;;;;;11.03;5.30;;;;;;;24.29;38.56;100855.45;126146;1099;104257;-79
2021/09/10 10:53:07;;;;;;;11.90;5.70;;;;;;;24.39;38.83;100851.73;126200;1099;104178;-79
2021/09/10 10:55:42;;;;;;;13.73;5.17;;;;;;;24.41;39.16;100849.89;126231;1098;104152;-78
2021/09/10 10:58:26;;;;;;;10.27;4.97;;;;;;;24.44;38.86;100843.61;126143;1099;104328;-79
2021/09/10 11:01:05;;;;;;;15.30;5.23;;;;;;;24.49;38.60;100839.05;126139;1098;104181;-75
2021/09/10 11:03:49;;;;;;;10.27;4.90;;;;;;;24.47;36.30;100840.00;126240;1099;105852;-74
2021/09/10 11:06:29;;;;;;;;;;;;;;;24.45;33.94;100833.75;126261;1099;104165;-76
2021/09/10 11:09:07;;;;;;;11.63;5.23;;;;;;;24.49;36.41;100836.36;126230;1099;104168;-75
2021/09/10 11:11:39;;;;;;;13.53;5.27;;;;;;;24.56;36.82;100842.53;126117;1099;104286;-77
2021/09/10 11:14:11;;;;;;;10.70;5.27;;;;;;;24.60;36.77;100833.53;125993;1099;104282;-77
2021/09/10 11:16:42;;;;;;;14.70;5.17;;;;;;;24.58;36.30;100833.56;126047;1099;104345;-77
2021/09/10 11:19:22;;;;;;;15.63;5.27;;;;;;;24.62;36.71;100836.19;126067;1099;104252;-78
2021/09/10 11:22:02;;;;;;;11.57;5.23;;;;;;;24.62;36.69;100823.69;126212;1099;111913;-78
2021/09/10 11:24:34;;;;;;;11.63;5.13;;;;;;;24.61;35.84;100829.08;126100;1099;104207;-76
2021/09/10 11:27:22;;;;;;;12.75;5.00;;;;;;;24.66;36.00;100820.02;126174;1099;104201;-76
2021/09/10 11:29:54;;;;;;;10.83;5.10;;;;;;;24.72;36.22;100817.22;126021;1099;104239;-76
2021/09/10 11:32:28;;;;;;;15.73;5.40;;;;;;;24.75;35.72;100810.92;126122;1099;104172;-75